Time,TemperatureF,DewpointF,PressureIn,WindDirection,WindDirectionDegrees,WindSpeedMPH,WindSpeedGustMPH,Humidity,HourlyPrecipIn,Conditions,Clouds,dailyrainin,SoftwareType,DateUTC
2013-08-23 10:22:00,70.0,67.0,-100.00,South,180,2.0,7.0,89,0.00,,,-99.99,,2013-08-23 14:22:00,
2013-08-23 10:52:00,70.0,66.0,-100.00,ESE,120,2.0,6.0,87,0.00,,,-99.99,,2013-08-23 14:52:00,
2013-08-23 11:22:00,71.0,67.0,-100.00,SSE,155,1.0,5.0,87,0.00,,,-99.99,,2013-08-23 15:22:00,
2013-08-23 11:54:00,73.0,67.0,-100.00,SSW,200,1.0,4.0,82,0.00,,,-99.99,,2013-08-23 15:54:00,
2013-08-23 12:24:00,75.0,67.0,-100.00,North,5,2.0,5.0,78,0.00,,,-99.99,,2013-08-23 16:24:00,
2013-08-23 12:53:00,76.0,68.0,-100.00,NNW,335,2.0,5.0,76,0.00,,,-99.99,,2013-08-23 16:53:00,
2013-08-23 13:24:00,78.0,67.0,-100.00,North,0,3.0,4.0,68,0.00,,,-99.99,,2013-08-23 17:24:00,
2013-08-23 13:53:00,79.0,67.0,-100.00,NNW,335,4.0,7.0,67,0.00,,,-99.99,,2013-08-23 17:53:00,
2013-08-23 14:22:00,80.0,67.0,-100.00,ENE,65,2.0,9.0,63,0.00,,,-99.99,,2013-08-23 18:22:00,
2013-08-23 14:52:00,82.0,67.0,-100.00,ESE,120,3.0,11.0,60,0.00,,,-99.99,,2013-08-23 18:52:00,
2013-08-23 15:22:00,85.0,67.0,-100.00,East,80,1.0,7.0,55,0.00,,,-99.99,,2013-08-23 19:22:00,
2013-08-23 15:52:00,85.0,66.0,-100.00,ENE,65,4.0,9.0,53,0.00,,,-99.99,,2013-08-23 19:52:00,
2013-08-23 16:22:00,87.0,67.0,-100.00,NE,35,3.0,6.0,51,0.00,,,-99.99,,2013-08-23 20:22:00,
2013-08-23 16:52:00,86.0,65.0,-100.00,East,90,5.0,9.0,48,0.00,,,-99.99,,2013-08-23 20:52:00,
2013-08-23 17:22:00,87.0,62.0,-100.00,SSE,155,5.0,10.0,44,0.00,,,-99.99,,2013-08-23 21:22:00,
2013-08-23 17:54:00,86.0,62.0,-100.00,South,185,4.0,8.0,44,0.00,,,-99.99,,2013-08-23 21:54:00,
2013-08-23 18:24:00,87.0,62.0,-100.00,East,90,4.0,9.0,44,0.00,,,-99.99,,2013-08-23 22:24:00,
2013-08-23 18:53:00,83.0,63.0,-100.00,SSE,155,3.0,6.0,51,0.00,,,-99.99,,2013-08-23 22:53:00,
2013-08-23 19:22:00,80.0,65.0,-100.00,SSW,210,2.0,5.0,61,0.00,,,-99.99,,2013-08-23 23:22:00,
2013-08-23 19:54:00,79.0,67.0,-100.00,South,170,1.0,4.0,66,0.00,,,-99.99,,2013-08-23 23:54:00,
2013-08-23 20:22:00,77.0,67.0,-100.00,South,180,1.0,3.0,72,0.00,,,-99.99,,2013-08-24 00:22:00,
2013-08-23 20:53:00,75.0,67.0,-100.00,SSW,200,2.0,4.0,76,0.00,,,-99.99,,2013-08-24 00:53:00,
2013-08-23 21:22:00,74.0,66.0,-100.00,NNW,340,1.0,3.0,76,0.00,,,-99.99,,2013-08-24 01:22:00,
2013-08-23 21:53:00,72.0,66.0,-100.00,South,190,1.0,4.0,81,0.00,,,-99.99,,2013-08-24 01:53:00,
2013-08-23 22:22:00,72.0,66.0,-100.00,NW,315,0.0,2.0,83,0.00,,,-99.99,,2013-08-24 02:22:00,
2013-08-23 22:52:00,71.0,66.0,-100.00,SSE,160,0.0,3.0,85,0.00,,,-99.99,,2013-08-24 02:52:00,
2013-08-23 23:22:00,72.0,66.0,-100.00,NW,320,1.0,2.0,83,0.00,,,-99.99,,2013-08-24 03:22:00,
2013-08-23 23:54:00,71.0,67.0,-100.00,East,85,0.0,3.0,86,0.00,,,-99.99,,2013-08-24 03:54:00,